sensor_id;sensor_type;location;lat;lon;timestamp;pressure;altitude;pressure_sealevel;temperature;humidity
11605;BME280;5858;43.076;25.626;2023-06-22T00:00:22;99511.16;;;21.60;100.00
11605;BME280;5858;43.076;25.626;2023-06-22T00:03:13;99336.09;;;20.20;100.00
11605;BME280;5858;43.076;25.626;2023-06-22T00:06:16;99381.63;;;20.58;100.00
11605;BME280;5858;43.076;25.626;2023-06-22T00:08:54;99363.19;;;20.32;100.00
11605;BME280;5858;43.076;25.626;2023-06-22T00:13:03;99343.84;;;20.11;100.00
11605;BME280;5858;43.076;25.626;2023-06-22T00:15:16;99352.38;;;20.03;100.00
11605;BME280;5858;43.076;25.626;2023-06-22T00:39:33;99346.75;;;20.38;100.00
11605;BME280;5858;43.076;25.626;2023-06-22T00:48:49;99357.56;;;20.05;100.00
11605;BME280;5858;43.076;25.626;2023-06-22T01:01:51;99380.41;;;20.21;100.00
11605;BME280;5858;43.076;25.626;2023-06-22T01:04:38;99363.50;;;20.02;100.00
11605;BME280;5858;43.076;25.626;2023-06-22T01:07:29;99441.69;;;20.28;100.00
11605;BME280;5858;43.076;25.626;2023-06-22T01:10:32;99345.63;;;19.77;100.00
11605;BME280;5858;43.076;25.626;2023-06-22T01:17:08;99320.47;;;19.82;100.00
11605;BME280;5858;43.076;25.626;2023-06-22T01:20:36;99510.31;;;20.92;100.00
11605;BME280;5858;43.076;25.626;2023-06-22T01:23:48;99345.28;;;19.74;100.00
11605;BME280;5858;43.076;25.626;2023-06-22T01:26:34;99374.13;;;20.03;100.00
11605;BME280;5858;43.076;25.626;2023-06-22T01:29:08;99501.63;;;20.79;100.00
11605;BME280;5858;43.076;25.626;2023-06-22T01:31:44;99407.50;;;20.32;100.00
11605;BME280;5858;43.076;25.626;2023-06-22T01:34:21;99511.63;;;20.90;100.00
11605;BME280;5858;43.076;25.626;2023-06-22T01:36:59;99478.50;;;20.48;100.00
11605;BME280;5858;43.076;25.626;2023-06-22T01:39:32;99359.00;;;19.67;100.00
11605;BME280;5858;43.076;25.626;2023-06-22T01:42:03;99344.66;;;19.55;100.00
11605;BME280;5858;43.076;25.626;2023-06-22T01:44:39;99378.44;;;19.88;100.00
11605;BME280;5858;43.076;25.626;2023-06-22T01:47:12;99434.84;;;20.26;100.00
11605;BME280;5858;43.076;25.626;2023-06-22T01:49:43;99413.22;;;20.02;100.00
11605;BME280;5858;43.076;25.626;2023-06-22T01:52:13;99347.97;;;19.57;100.00
11605;BME280;5858;43.076;25.626;2023-06-22T01:54:41;99340.31;;;19.42;100.00
11605;BME280;5858;43.076;25.626;2023-06-22T01:57:09;99419.13;;;19.99;100.00
11605;BME280;5858;43.076;25.626;2023-06-22T01:59:48;99480.78;;;20.27;100.00
11605;BME280;5858;43.076;25.626;2023-06-22T02:02:19;99441.84;;;19.93;100.00
11605;BME280;5858;43.076;25.626;2023-06-22T02:04:57;99488.13;;;20.27;100.00
11605;BME280;5858;43.076;25.626;2023-06-22T02:07:39;99345.84;;;19.47;100.00
11605;BME280;5858;43.076;25.626;2023-06-22T02:10:12;99353.88;;;19.54;100.00
11605;BME280;5858;43.076;25.626;2023-06-22T02:12:46;99362.94;;;19.60;100.00
11605;BME280;5858;43.076;25.626;2023-06-22T02:15:26;99526.00;;;20.73;100.00
11605;BME280;5858;43.076;25.626;2023-06-22T02:18:03;99378.81;;;19.79;100.00
11605;BME280;5858;43.076;25.626;2023-06-22T02:20:36;99481.38;;;20.29;100.00
11605;BME280;5858;43.076;25.626;2023-06-22T02:23:12;99415.50;;;19.82;100.00
11605;BME280;5858;43.076;25.626;2023-06-22T02:25:48;99381.91;;;19.71;100.00
11605;BME280;5858;43.076;25.626;2023-06-22T02:28:15;99542.84;;;20.42;100.00
11605;BME280;5858;43.076;25.626;2023-06-22T02:30:46;99389.84;;;19.38;100.00
11605;BME280;5858;43.076;25.626;2023-06-22T02:33:17;99369.09;;;19.32;100.00
11605;BME280;5858;43.076;25.626;2023-06-22T02:35:45;99392.13;;;19.41;100.00
11605;BME280;5858;43.076;25.626;2023-06-22T02:38:36;99552.63;;;20.31;100.00
11605;BME280;5858;43.076;25.626;2023-06-22T02:41:03;99443.97;;;19.79;100.00
11605;BME280;5858;43.076;25.626;2023-06-22T02:43:32;99389.25;;;19.36;100.00
11605;BME280;5858;43.076;25.626;2023-06-22T02:46:00;99520.91;;;20.08;100.00
11605;BME280;5858;43.076;25.626;2023-06-22T02:48:31;99389.63;;;19.39;100.00
11605;BME280;5858;43.076;25.626;2023-06-22T02:51:02;99474.09;;;19.90;100.00
11605;BME280;5858;43.076;25.626;2023-06-22T02:53:32;99362.78;;;19.03;100.00
11605;BME280;5858;43.076;25.626;2023-06-22T02:56:08;99509.50;;;19.95;100.00
11605;BME280;5858;43.076;25.626;2023-06-22T02:58:38;99512.69;;;19.92;100.00
11605;BME280;5858;43.076;25.626;2023-06-22T03:01:14;99561.97;;;20.47;100.00
11605;BME280;5858;43.076;25.626;2023-06-22T03:03:44;99408.41;;;19.53;100.00
11605;BME280;5858;43.076;25.626;2023-06-22T03:06:13;99579.06;;;20.59;100.00
11605;BME280;5858;43.076;25.626;2023-06-22T03:08:50;99410.13;;;19.70;100.00
11605;BME280;5858;43.076;25.626;2023-06-22T03:11:17;99540.75;;;20.61;100.00
11605;BME280;5858;43.076;25.626;2023-06-22T03:13:48;99430.44;;;20.08;100.00
11605;BME280;5858;43.076;25.626;2023-06-22T03:16:17;99483.84;;;20.88;100.00
11605;BME280;5858;43.076;25.626;2023-06-22T03:18:46;99582.78;;;21.77;100.00
11605;BME280;5858;43.076;25.626;2023-06-22T03:21:13;99427.72;;;20.98;100.00
11605;BME280;5858;43.076;25.626;2023-06-22T03:23:43;99590.59;;;22.07;100.00
11605;BME280;5858;43.076;25.626;2023-06-22T03:26:12;99454.38;;;21.52;98.69
11605;BME280;5858;43.076;25.626;2023-06-22T03:28:39;99505.91;;;22.36;96.09
11605;BME280;5858;43.076;25.626;2023-06-22T03:31:07;99435.16;;;22.24;94.14
11605;BME280;5858;43.076;25.626;2023-06-22T03:33:48;99538.78;;;23.32;91.96
11605;BME280;5858;43.076;25.626;2023-06-22T03:36:21;99504.31;;;23.58;89.60
11605;BME280;5858;43.076;25.626;2023-06-22T03:38:50;99439.28;;;23.60;86.72
11605;BME280;5858;43.076;25.626;2023-06-22T03:41:19;99454.78;;;24.01;84.27
11605;BME280;5858;43.076;25.626;2023-06-22T03:43:46;99475.47;;;24.39;82.10
11605;BME280;5858;43.076;25.626;2023-06-22T03:46:14;99468.97;;;24.76;80.02
11605;BME280;5858;43.076;25.626;2023-06-22T03:48:43;99513.84;;;24.75;78.78
11605;BME280;5858;43.076;25.626;2023-06-22T03:51:12;99462.63;;;24.50;77.29
11605;BME280;5858;43.076;25.626;2023-06-22T03:53:43;99475.00;;;24.68;76.76
11605;BME280;5858;43.076;25.626;2023-06-22T03:56:13;99594.19;;;25.36;78.27
11605;BME280;5858;43.076;25.626;2023-06-22T03:58:46;99471.44;;;24.62;77.24
11605;BME280;5858;43.076;25.626;2023-06-22T04:01:15;99452.44;;;24.25;78.62
11605;BME280;5858;43.076;25.626;2023-06-22T04:03:45;99478.09;;;24.14;79.82
11605;BME280;5858;43.076;25.626;2023-06-22T04:06:16;99468.75;;;24.05;79.39
11605;BME280;5858;43.076;25.626;2023-06-22T04:08:45;99600.44;;;25.01;80.33
11605;BME280;5858;43.076;25.626;2023-06-22T04:11:13;99464.47;;;24.24;79.86
11605;BME280;5858;43.076;25.626;2023-06-22T04:13:41;99445.75;;;23.91;80.23
11605;BME280;5858;43.076;25.626;2023-06-22T04:16:08;99629.53;;;25.23;79.89
11605;BME280;5858;43.076;25.626;2023-06-22T04:18:35;99615.28;;;25.31;78.87
11605;BME280;5858;43.076;25.626;2023-06-22T04:21:05;99572.81;;;25.23;77.55
11605;BME280;5858;43.076;25.626;2023-06-22T04:23:34;99487.59;;;24.84;76.56
11605;BME280;5858;43.076;25.626;2023-06-22T04:26:03;99534.47;;;25.38;74.81
11605;BME280;5858;43.076;25.626;2023-06-22T04:28:30;99572.00;;;25.84;74.45
11605;BME280;5858;43.076;25.626;2023-06-22T04:31:04;99579.66;;;25.92;70.26
11605;BME280;5858;43.076;25.626;2023-06-22T04:33:32;99548.16;;;25.69;72.82
11605;BME280;5858;43.076;25.626;2023-06-22T04:35:59;99488.97;;;25.58;73.35
11605;BME280;5858;43.076;25.626;2023-06-22T04:38:30;99569.69;;;26.21;71.70
11605;BME280;5858;43.076;25.626;2023-06-22T04:41:00;99603.63;;;26.56;70.57
11605;BME280;5858;43.076;25.626;2023-06-22T04:43:28;99608.97;;;26.86;69.90
11605;BME280;5858;43.076;25.626;2023-06-22T04:45:56;99587.41;;;27.14;67.79
11605;BME280;5858;43.076;25.626;2023-06-22T04:48:55;99493.47;;;26.67;64.90
11605;BME280;5858;43.076;25.626;2023-06-22T04:52:19;99498.22;;;26.96;64.78
11605;BME280;5858;43.076;25.626;2023-06-22T04:55:12;99643.59;;;28.05;64.43
11605;BME280;5858;43.076;25.626;2023-06-22T05:01:07;99636.28;;;28.48;62.36
11605;BME280;5858;43.076;25.626;2023-06-22T05:17:25;99626.22;;;29.75;51.97
11605;BME280;5858;43.076;25.626;2023-06-22T05:20:11;99488.09;;;29.06;54.09
11605;BME280;5858;43.076;25.626;2023-06-22T05:22:46;99627.06;;;30.22;53.72
11605;BME280;5858;43.076;25.626;2023-06-22T05:25:18;99544.88;;;29.72;51.43
11605;BME280;5858;43.076;25.626;2023-06-22T05:28:01;99618.16;;;30.25;50.77
11605;BME280;5858;43.076;25.626;2023-06-22T05:30:37;99497.00;;;29.36;51.98
11605;BME280;5858;43.076;25.626;2023-06-22T05:33:15;99520.97;;;29.35;51.00
11605;BME280;5858;43.076;25.626;2023-06-22T05:35:42;99593.41;;;29.73;51.54
11605;BME280;5858;43.076;25.626;2023-06-22T05:38:09;99604.44;;;29.73;50.60
11605;BME280;5858;43.076;25.626;2023-06-22T05:40:39;99609.56;;;30.26;50.14
11605;BME280;5858;43.076;25.626;2023-06-22T05:43:12;99562.03;;;30.02;48.02
11605;BME280;5858;43.076;25.626;2023-06-22T05:45:39;99637.84;;;29.72;50.59
11605;BME280;5858;43.076;25.626;2023-06-22T05:48:06;99614.63;;;29.92;52.75
11605;BME280;5858;43.076;25.626;2023-06-22T05:50:36;99557.91;;;29.99;52.79
11605;BME280;5858;43.076;25.626;2023-06-22T05:53:03;99629.44;;;30.56;50.78
11605;BME280;5858;43.076;25.626;2023-06-22T05:55:32;99504.66;;;29.85;50.46
11605;BME280;5858;43.076;25.626;2023-06-22T05:57:59;99576.56;;;30.62;50.26
11605;BME280;5858;43.076;25.626;2023-06-22T06:00:31;99557.28;;;31.07;46.99
11605;BME280;5858;43.076;25.626;2023-06-22T06:03:01;99633.69;;;32.06;46.04
11605;BME280;5858;43.076;25.626;2023-06-22T06:05:41;99561.16;;;31.87;43.17
11605;BME280;5858;43.076;25.626;2023-06-22T06:08:08;99538.75;;;31.08;44.84
11605;BME280;5858;43.076;25.626;2023-06-22T06:10:38;99550.75;;;31.39;44.65
11605;BME280;5858;43.076;25.626;2023-06-22T06:13:05;99592.97;;;32.38;43.11
11605;BME280;5858;43.076;25.626;2023-06-22T06:15:34;99625.91;;;32.96;42.49
11605;BME280;5858;43.076;25.626;2023-06-22T06:18:01;99558.78;;;32.51;42.21
11605;BME280;5858;43.076;25.626;2023-06-22T06:20:31;99635.59;;;33.51;41.44
11605;BME280;5858;43.076;25.626;2023-06-22T06:22:59;99573.88;;;33.54;41.36
11605;BME280;5858;43.076;25.626;2023-06-22T06:25:27;99646.75;;;34.23;40.03
11605;BME280;5858;43.076;25.626;2023-06-22T06:28:13;99604.94;;;34.20;39.83
11605;BME280;5858;43.076;25.626;2023-06-22T06:30:40;99559.31;;;34.21;39.18
11605;BME280;5858;43.076;25.626;2023-06-22T06:33:07;99586.53;;;33.98;39.00
11605;BME280;5858;43.076;25.626;2023-06-22T06:35:39;99580.13;;;34.44;39.24
11605;BME280;5858;43.076;25.626;2023-06-22T06:38:38;99494.44;;;33.87;38.18
11605;BME280;5858;43.076;25.626;2023-06-22T06:41:06;99568.00;;;34.57;38.11
11605;BME280;5858;43.076;25.626;2023-06-22T06:43:36;99607.81;;;34.32;40.44
11605;BME280;5858;43.076;25.626;2023-06-22T06:46:03;99491.66;;;33.32;40.39
11605;BME280;5858;43.076;25.626;2023-06-22T06:48:33;99571.09;;;33.62;39.62
11605;BME280;5858;43.076;25.626;2023-06-22T06:51:00;99555.28;;;33.02;40.66
11605;BME280;5858;43.076;25.626;2023-06-22T06:53:27;99636.94;;;32.70;42.84
11605;BME280;5858;43.076;25.626;2023-06-22T06:55:55;99584.09;;;31.87;43.98
11605;BME280;5858;43.076;25.626;2023-06-22T06:58:25;99482.66;;;30.85;44.82
11605;BME280;5858;43.076;25.626;2023-06-22T07:00:52;99635.84;;;31.64;48.19
11605;BME280;5858;43.076;25.626;2023-06-22T07:03:19;99443.66;;;30.50;47.99
11605;BME280;5858;43.076;25.626;2023-06-22T07:05:48;99524.50;;;31.14;48.54
11605;BME280;5858;43.076;25.626;2023-06-22T07:08:15;99618.59;;;31.81;47.69
11605;BME280;5858;43.076;25.626;2023-06-22T07:10:44;99483.34;;;30.90;48.30
11605;BME280;5858;43.076;25.626;2023-06-22T07:13:31;99468.69;;;30.67;47.43
11605;BME280;5858;43.076;25.626;2023-06-22T07:15:59;99538.34;;;31.37;49.33
11605;BME280;5858;43.076;25.626;2023-06-22T07:18:26;99488.13;;;31.21;49.99
11605;BME280;5858;43.076;25.626;2023-06-22T07:20:53;99596.22;;;32.00;48.53
11605;BME280;5858;43.076;25.626;2023-06-22T07:23:20;99521.81;;;31.45;47.61
11605;BME280;5858;43.076;25.626;2023-06-22T07:25:49;99621.94;;;32.01;43.48
11605;BME280;5858;43.076;25.626;2023-06-22T07:28:16;99565.00;;;31.33;44.56
11605;BME280;5858;43.076;25.626;2023-06-22T07:30:44;99590.03;;;31.27;45.40
11605;BME280;5858;43.076;25.626;2023-06-22T07:33:11;99602.91;;;31.32;45.03
11605;BME280;5858;43.076;25.626;2023-06-22T07:35:38;99554.91;;;31.14;47.99
11605;BME280;5858;43.076;25.626;2023-06-22T07:38:07;99632.78;;;31.88;48.88
11605;BME280;5858;43.076;25.626;2023-06-22T07:40:37;99456.72;;;30.94;47.06
11605;BME280;5858;43.076;25.626;2023-06-22T07:43:33;99540.06;;;31.24;45.49
11605;BME280;5858;43.076;25.626;2023-06-22T07:46:07;99631.66;;;31.89;45.02
11605;BME280;5858;43.076;25.626;2023-06-22T07:48:36;99586.88;;;31.20;44.32
11605;BME280;5858;43.076;25.626;2023-06-22T07:51:04;99481.06;;;30.70;45.05
11605;BME280;5858;43.076;25.626;2023-06-22T07:53:32;99575.75;;;31.56;46.20
11605;BME280;5858;43.076;25.626;2023-06-22T07:55:59;99533.88;;;31.49;45.55
11605;BME280;5858;43.076;25.626;2023-06-22T07:58:32;99560.63;;;31.31;44.33
11605;BME280;5858;43.076;25.626;2023-06-22T08:01:00;99595.75;;;31.53;45.32
11605;BME280;5858;43.076;25.626;2023-06-22T08:03:28;99569.34;;;31.11;44.15
11605;BME280;5858;43.076;25.626;2023-06-22T08:05:56;99584.25;;;31.01;45.33
11605;BME280;5858;43.076;25.626;2023-06-22T08:08:25;99564.88;;;31.15;46.91
11605;BME280;5858;43.076;25.626;2023-06-22T08:10:52;99468.97;;;30.80;46.34
11605;BME280;5858;43.076;25.626;2023-06-22T08:13:21;99566.00;;;31.59;46.82
11605;BME280;5858;43.076;25.626;2023-06-22T08:15:48;99518.44;;;31.26;41.66
11605;BME280;5858;43.076;25.626;2023-06-22T08:18:17;99470.63;;;31.25;43.21
11605;BME280;5858;43.076;25.626;2023-06-22T08:20:47;99550.75;;;31.92;43.46
11605;BME280;5858;43.076;25.626;2023-06-22T08:23:17;99517.88;;;31.38;40.52
11605;BME280;5858;43.076;25.626;2023-06-22T08:25:44;99584.41;;;31.63;43.36
11605;BME280;5858;43.076;25.626;2023-06-22T08:28:11;99584.84;;;31.57;42.73
11605;BME280;5858;43.076;25.626;2023-06-22T08:30:38;99563.59;;;31.21;41.22
11605;BME280;5858;43.076;25.626;2023-06-22T08:33:08;99443.81;;;30.31;42.76
11605;BME280;5858;43.076;25.626;2023-06-22T08:35:35;99584.88;;;30.98;42.19
11605;BME280;5858;43.076;25.626;2023-06-22T08:38:03;99542.84;;;30.74;42.91
11605;BME280;5858;43.076;25.626;2023-06-22T08:40:30;99548.47;;;30.83;42.09
11605;BME280;5858;43.076;25.626;2023-06-22T08:42:58;99595.63;;;31.36;40.76
11605;BME280;5858;43.076;25.626;2023-06-22T08:45:26;99518.41;;;30.81;41.06
11605;BME280;5858;43.076;25.626;2023-06-22T08:47:53;99475.94;;;30.77;42.43
11605;BME280;5858;43.076;25.626;2023-06-22T08:50:22;99465.38;;;30.79;42.39
11605;BME280;5858;43.076;25.626;2023-06-22T08:52:52;99515.88;;;31.29;41.40
11605;BME280;5858;43.076;25.626;2023-06-22T08:55:25;99610.28;;;31.81;40.34
11605;BME280;5858;43.076;25.626;2023-06-22T08:57:52;99538.91;;;31.47;42.66
11605;BME280;5858;43.076;25.626;2023-06-22T09:00:20;99541.66;;;31.70;42.75
11605;BME280;5858;43.076;25.626;2023-06-22T09:02:48;99573.22;;;31.91;42.49
11605;BME280;5858;43.076;25.626;2023-06-22T09:05:15;99562.88;;;31.74;39.92
11605;BME280;5858;43.076;25.626;2023-06-22T09:07:42;99477.25;;;31.02;40.70
11605;BME280;5858;43.076;25.626;2023-06-22T09:10:10;99568.75;;;31.59;41.15
11605;BME280;5858;43.076;25.626;2023-06-22T09:12:39;99535.91;;;31.35;42.12
11605;BME280;5858;43.076;25.626;2023-06-22T09:15:07;99442.41;;;30.92;40.10
11605;BME280;5858;43.076;25.626;2023-06-22T09:17:34;99559.31;;;31.60;42.56
11605;BME280;5858;43.076;25.626;2023-06-22T09:20:04;99592.88;;;31.81;42.03
11605;BME280;5858;43.076;25.626;2023-06-22T09:22:36;99502.09;;;31.16;40.75
11605;BME280;5858;43.076;25.626;2023-06-22T09:25:09;99482.03;;;30.88;40.53
11605;BME280;5858;43.076;25.626;2023-06-22T09:27:38;99484.53;;;30.76;42.30
11605;BME280;5858;43.076;25.626;2023-06-22T09:30:09;99485.97;;;30.95;42.48
11605;BME280;5858;43.076;25.626;2023-06-22T09:32:38;99608.81;;;32.15;44.90
11605;BME280;5858;43.076;25.626;2023-06-22T09:35:06;99523.63;;;31.72;41.32
11605;BME280;5858;43.076;25.626;2023-06-22T09:37:41;99485.28;;;31.66;42.33
11605;BME280;5858;43.076;25.626;2023-06-22T09:40:19;99565.25;;;32.29;41.66
11605;BME280;5858;43.076;25.626;2023-06-22T09:42:58;99515.53;;;32.24;41.33
11605;BME280;5858;43.076;25.626;2023-06-22T09:45:34;99598.91;;;32.62;41.26
11605;BME280;5858;43.076;25.626;2023-06-22T09:48:13;99499.09;;;31.79;40.79
11605;BME280;5858;43.076;25.626;2023-06-22T09:50:40;99498.22;;;31.70;42.20
11605;BME280;5858;43.076;25.626;2023-06-22T09:53:07;99487.19;;;31.56;42.35
11605;BME280;5858;43.076;25.626;2023-06-22T09:55:35;99532.50;;;31.69;42.95
11605;BME280;5858;43.076;25.626;2023-06-22T09:58:04;99495.88;;;31.33;42.30
11605;BME280;5858;43.076;25.626;2023-06-22T10:00:31;99502.53;;;31.62;44.90
11605;BME280;5858;43.076;25.626;2023-06-22T10:03:02;99471.25;;;31.53;41.90
11605;BME280;5858;43.076;25.626;2023-06-22T10:05:33;99505.25;;;31.54;41.75
11605;BME280;5858;43.076;25.626;2023-06-22T10:08:00;99426.03;;;31.05;42.13
11605;BME280;5858;43.076;25.626;2023-06-22T10:10:27;99541.22;;;31.54;42.34
11605;BME280;5858;43.076;25.626;2023-06-22T10:12:56;99597.84;;;32.01;41.51
11605;BME280;5858;43.076;25.626;2023-06-22T10:15:25;99471.34;;;31.40;43.35
11605;BME280;5858;43.076;25.626;2023-06-22T10:17:55;99428.56;;;30.92;41.70
11605;BME280;5858;43.076;25.626;2023-06-22T10:20:24;99485.84;;;31.00;41.86
11605;BME280;5858;43.076;25.626;2023-06-22T10:22:54;99594.25;;;31.70;44.23
11605;BME280;5858;43.076;25.626;2023-06-22T10:25:21;99577.63;;;31.70;41.99
11605;BME280;5858;43.076;25.626;2023-06-22T10:28:03;99430.28;;;30.80;42.04
11605;BME280;5858;43.076;25.626;2023-06-22T10:31:01;99574.44;;;31.76;41.98
11605;BME280;5858;43.076;25.626;2023-06-22T10:33:34;99474.50;;;31.24;40.56
11605;BME280;5858;43.076;25.626;2023-06-22T10:36:02;99457.78;;;31.29;37.90
11605;BME280;5858;43.076;25.626;2023-06-22T10:38:29;99499.75;;;31.62;39.91
11605;BME280;5858;43.076;25.626;2023-06-22T10:40:56;99569.94;;;32.20;39.57
11605;BME280;5858;43.076;25.626;2023-06-22T10:43:30;99428.94;;;30.99;37.97
11605;BME280;5858;43.076;25.626;2023-06-22T10:45:57;99534.09;;;31.61;38.10
11605;BME280;5858;43.076;25.626;2023-06-22T10:48:26;99458.81;;;31.42;38.70
11605;BME280;5858;43.076;25.626;2023-06-22T10:51:01;99416.53;;;31.42;39.42
11605;BME280;5858;43.076;25.626;2023-06-22T10:53:34;99506.00;;;32.08;37.95
11605;BME280;5858;43.076;25.626;2023-06-22T10:56:01;99561.50;;;32.82;38.98
11605;BME280;5858;43.076;25.626;2023-06-22T10:58:30;99518.03;;;32.60;37.66
11605;BME280;5858;43.076;25.626;2023-06-22T11:00:57;99506.88;;;32.17;39.57
11605;BME280;5858;43.076;25.626;2023-06-22T11:03:27;99518.88;;;32.04;39.57
11605;BME280;5858;43.076;25.626;2023-06-22T11:05:56;99400.22;;;30.42;40.28
11605;BME280;5858;43.076;25.626;2023-06-22T11:08:36;99431.66;;;30.55;39.25
11605;BME280;5858;43.076;25.626;2023-06-22T11:11:03;99475.69;;;30.87;39.64
11605;BME280;5858;43.076;25.626;2023-06-22T11:13:50;99555.25;;;31.80;40.31
11605;BME280;5858;43.076;25.626;2023-06-22T11:16:19;99539.22;;;31.99;39.32
11605;BME280;5858;43.076;25.626;2023-06-22T11:18:48;99470.00;;;31.68;36.49
11605;BME280;5858;43.076;25.626;2023-06-22T11:21:17;99518.97;;;31.90;36.04
11605;BME280;5858;43.076;25.626;2023-06-22T11:23:47;99415.63;;;31.01;32.47
11605;BME280;5858;43.076;25.626;2023-06-22T11:26:16;99418.19;;;30.98;33.15
11605;BME280;5858;43.076;25.626;2023-06-22T11:28:46;99542.09;;;31.85;32.50
11605;BME280;5858;43.076;25.626;2023-06-22T11:31:16;99513.25;;;31.55;31.83
11605;BME280;5858;43.076;25.626;2023-06-22T11:33:52;99529.38;;;31.62;31.70
11605;BME280;5858;43.076;25.626;2023-06-22T11:36:19;99545.31;;;31.56;32.42
11605;BME280;5858;43.076;25.626;2023-06-22T11:38:52;99475.66;;;31.23;33.88
11605;BME280;5858;43.076;25.626;2023-06-22T11:41:19;99506.53;;;31.70;32.29
11605;BME280;5858;43.076;25.626;2023-06-22T11:43:47;99543.13;;;32.07;33.78
11605;BME280;5858;43.076;25.626;2023-06-22T11:46:15;99499.00;;;32.02;35.79
11605;BME280;5858;43.076;25.626;2023-06-22T11:48:42;99475.47;;;31.51;32.79
11605;BME280;5858;43.076;25.626;2023-06-22T11:51:10;99418.81;;;31.17;33.55
11605;BME280;5858;43.076;25.626;2023-06-22T11:53:37;99471.44;;;31.66;34.02
11605;BME280;5858;43.076;25.626;2023-06-22T11:56:05;99541.53;;;32.14;33.02
11605;BME280;5858;43.076;25.626;2023-06-22T11:58:32;99455.53;;;31.31;33.04
11605;BME280;5858;43.076;25.626;2023-06-22T12:00:59;99422.66;;;31.30;34.59
11605;BME280;5858;43.076;25.626;2023-06-22T12:03:26;99497.69;;;31.99;34.05
11605;BME280;5858;43.076;25.626;2023-06-22T12:05:54;99451.72;;;31.89;33.64
11605;BME280;5858;43.076;25.626;2023-06-22T12:08:23;99417.03;;;31.52;34.94
11605;BME280;5858;43.076;25.626;2023-06-22T12:10:52;99472.53;;;31.78;33.77
11605;BME280;5858;43.076;25.626;2023-06-22T12:13:21;99557.38;;;32.22;35.33
11605;BME280;5858;43.076;25.626;2023-06-22T12:15:48;99503.06;;;32.04;34.43
11605;BME280;5858;43.076;25.626;2023-06-22T12:18:17;99454.44;;;31.72;34.58
11605;BME280;5858;43.076;25.626;2023-06-22T12:20:46;99451.25;;;31.65;34.93
11605;BME280;5858;43.076;25.626;2023-06-22T12:23:15;99442.91;;;31.79;33.60
11605;BME280;5858;43.076;25.626;2023-06-22T12:25:45;99435.88;;;31.73;34.61
11605;BME280;5858;43.076;25.626;2023-06-22T12:28:12;99464.13;;;32.01;33.31
11605;BME280;5858;43.076;25.626;2023-06-22T12:30:39;99537.56;;;32.29;33.81
11605;BME280;5858;43.076;25.626;2023-06-22T12:33:06;99511.81;;;32.29;33.49
11605;BME280;5858;43.076;25.626;2023-06-22T12:35:54;99476.63;;;31.81;33.78
11605;BME280;5858;43.076;25.626;2023-06-22T12:38:21;99492.59;;;31.92;34.43
11605;BME280;5858;43.076;25.626;2023-06-22T12:40:52;99545.72;;;32.34;33.06
11605;BME280;5858;43.076;25.626;2023-06-22T12:43:19;99424.22;;;31.53;32.88
11605;BME280;5858;43.076;25.626;2023-06-22T12:45:46;99399.44;;;31.79;32.73
11605;BME280;5858;43.076;25.626;2023-06-22T12:48:13;99364.84;;;31.68;32.77
11605;BME280;5858;43.076;25.626;2023-06-22T12:50:40;99375.91;;;31.68;34.07
11605;BME280;5858;43.076;25.626;2023-06-22T12:53:07;99482.97;;;32.30;32.18
11605;BME280;5858;43.076;25.626;2023-06-22T12:55:34;99511.22;;;32.66;33.23
11605;BME280;5858;43.076;25.626;2023-06-22T12:58:04;99383.00;;;31.74;33.55
11605;BME280;5858;43.076;25.626;2023-06-22T13:00:34;99509.13;;;32.80;33.63
11605;BME280;5858;43.076;25.626;2023-06-22T13:03:01;99421.50;;;32.19;33.21
11605;BME280;5858;43.076;25.626;2023-06-22T13:05:28;99402.09;;;31.62;32.48
11605;BME280;5858;43.076;25.626;2023-06-22T13:08:01;99525.03;;;32.40;32.60
11605;BME280;5858;43.076;25.626;2023-06-22T13:10:45;99485.59;;;32.43;34.39
11605;BME280;5858;43.076;25.626;2023-06-22T13:13:13;99492.50;;;32.80;34.68
11605;BME280;5858;43.076;25.626;2023-06-22T13:15:40;99421.22;;;32.55;33.33
11605;BME280;5858;43.076;25.626;2023-06-22T13:18:12;99334.66;;;31.80;32.89
11605;BME280;5858;43.076;25.626;2023-06-22T13:20:41;99483.63;;;32.35;34.69
11605;BME280;5858;43.076;25.626;2023-06-22T13:23:11;99426.50;;;31.91;34.08
11605;BME280;5858;43.076;25.626;2023-06-22T13:25:38;99366.94;;;31.62;34.74
11605;BME280;5858;43.076;25.626;2023-06-22T13:28:05;99377.88;;;31.68;34.35
11605;BME280;5858;43.076;25.626;2023-06-22T13:30:33;99385.19;;;31.63;34.50
11605;BME280;5858;43.076;25.626;2023-06-22T13:33:00;99425.69;;;31.99;34.88
11605;BME280;5858;43.076;25.626;2023-06-22T13:35:27;99377.00;;;31.50;34.26
11605;BME280;5858;43.076;25.626;2023-06-22T13:37:56;99479.63;;;32.10;34.37
11605;BME280;5858;43.076;25.626;2023-06-22T13:40:23;99419.34;;;31.99;33.12
11605;BME280;5858;43.076;25.626;2023-06-22T13:42:50;99343.25;;;31.70;33.35
11605;BME280;5858;43.076;25.626;2023-06-22T13:45:17;99405.06;;;32.22;32.94
11605;BME280;5858;43.076;25.626;2023-06-22T13:47:46;99447.81;;;32.65;33.97
11605;BME280;5858;43.076;25.626;2023-06-22T13:50:14;99421.88;;;32.43;33.26
11605;BME280;5858;43.076;25.626;2023-06-22T13:52:46;99430.03;;;32.31;34.43
11605;BME280;5858;43.076;25.626;2023-06-22T13:55:13;99411.19;;;32.02;34.70
11605;BME280;5858;43.076;25.626;2023-06-22T13:57:41;99450.34;;;32.18;34.50
11605;BME280;5858;43.076;25.626;2023-06-22T14:00:09;99455.63;;;32.45;35.25
11605;BME280;5858;43.076;25.626;2023-06-22T14:02:40;99319.50;;;31.86;33.80
11605;BME280;5858;43.076;25.626;2023-06-22T14:05:09;99443.38;;;32.64;33.18
11605;BME280;5858;43.076;25.626;2023-06-22T14:07:40;99373.31;;;32.29;33.61
11605;BME280;5858;43.076;25.626;2023-06-22T14:10:08;99326.03;;;32.16;33.64
11605;BME280;5858;43.076;25.626;2023-06-22T14:12:35;99367.56;;;32.16;33.70
11605;BME280;5858;43.076;25.626;2023-06-22T14:15:05;99322.94;;;32.01;34.20
11605;BME280;5858;43.076;25.626;2023-06-22T14:17:40;99325.69;;;32.01;34.29
11605;BME280;5858;43.076;25.626;2023-06-22T14:20:13;99302.91;;;31.86;35.05